createdAt,value
2017-06-09T00:00:06.801Z,5.97
2017-06-09T00:02:33.444Z,5.10
2017-06-09T00:04:59.668Z,5.20
2017-06-09T00:07:25.948Z,5.07
2017-06-09T00:09:52.559Z,4.47
2017-06-09T00:12:18.807Z,5.67
2017-06-09T00:14:45.072Z,4.90
2017-06-09T00:17:12.456Z,5.77
2017-06-09T00:19:38.684Z,5.70
2017-06-09T00:22:04.923Z,5.47
2017-06-09T00:24:31.552Z,5.70
2017-06-09T00:26:57.816Z,5.20
2017-06-09T00:29:24.076Z,6.50
2017-06-09T00:31:51.491Z,5.63
2017-06-09T00:34:17.817Z,5.20
2017-06-09T00:36:44.117Z,5.40
2017-06-09T00:39:10.672Z,5.03
2017-06-09T00:41:36.955Z,5.57
2017-06-09T00:44:04.009Z,5.50
2017-06-09T00:46:30.685Z,6.03
2017-06-09T00:48:57.038Z,6.10
2017-06-09T00:51:23.280Z,6.27
2017-06-09T00:53:49.900Z,6.20
2017-06-09T00:56:16.148Z,6.80
2017-06-09T00:58:42.384Z,6.73
2017-06-09T01:01:08.994Z,5.73
2017-06-09T01:03:35.285Z,6.03
2017-06-09T01:06:01.544Z,6.53
2017-06-09T01:08:28.244Z,5.90
2017-06-09T01:10:55.247Z,6.30
2017-06-09T01:13:21.460Z,6.63
2017-06-09T01:15:48.093Z,6.40
2017-06-09T01:18:14.320Z,7.33
2017-06-09T01:20:40.556Z,6.27
2017-06-09T01:23:07.701Z,6.77
2017-06-09T01:25:33.975Z,6.93
2017-06-09T01:28:00.220Z,7.03
2017-06-09T01:30:27.632Z,6.93
2017-06-09T01:32:53.936Z,6.80
2017-06-09T01:35:20.246Z,8.07
2017-06-09T01:37:47.655Z,7.07
2017-06-09T01:40:13.920Z,7.17
2017-06-09T01:42:40.194Z,7.20
2017-06-09T01:45:06.849Z,7.80
2017-06-09T01:47:33.148Z,6.87
2017-06-09T01:49:59.427Z,7.80
2017-06-09T01:52:26.148Z,7.10
2017-06-09T01:54:52.437Z,6.73
2017-06-09T01:57:19.526Z,7.10
2017-06-09T01:59:46.256Z,8.17
2017-06-09T02:02:12.540Z,7.50
2017-06-09T02:04:38.819Z,7.63
2017-06-09T02:07:06.092Z,7.90
2017-06-09T02:09:32.455Z,7.40
2017-06-09T02:11:59.444Z,7.00
2017-06-09T02:14:26.093Z,7.10
2017-06-09T02:16:52.380Z,7.80
2017-06-09T02:19:19.373Z,7.20
2017-06-09T02:21:46.088Z,7.60
2017-06-09T02:24:12.367Z,7.40
2017-06-09T02:26:38.625Z,7.97
2017-06-09T02:29:05.309Z,8.47
2017-06-09T02:31:31.557Z,7.47
2017-06-09T02:33:57.792Z,7.73
2017-06-09T02:36:24.936Z,7.90
2017-06-09T02:38:51.203Z,7.73
2017-06-09T02:41:18.212Z,8.40
2017-06-09T02:43:44.845Z,8.90
2017-06-09T02:46:11.204Z,7.10
2017-06-09T02:48:37.488Z,8.87
2017-06-09T02:51:04.129Z,8.00
2017-06-09T02:53:30.420Z,8.27
2017-06-09T02:55:56.703Z,8.00
2017-06-09T02:58:23.284Z,7.53
2017-06-09T03:00:50.272Z,8.30
2017-06-09T03:03:16.570Z,8.63
2017-06-09T03:05:43.324Z,8.30
2017-06-09T03:08:09.579Z,8.37
2017-06-09T03:10:35.847Z,7.90
2017-06-09T03:13:03.251Z,7.43
2017-06-09T03:15:29.533Z,7.87
2017-06-09T03:17:55.827Z,7.27
2017-06-09T03:20:23.271Z,7.33
2017-06-09T03:22:49.586Z,6.77
2017-06-09T03:25:15.840Z,7.33
2017-06-09T03:27:42.556Z,7.90
2017-06-09T03:30:08.828Z,7.13
2017-06-09T03:32:42.587Z,6.90
2017-06-09T03:35:08.891Z,7.60
2017-06-09T03:37:35.198Z,7.20
2017-06-09T03:40:02.659Z,7.30
2017-06-09T03:42:28.973Z,7.03
2017-06-09T03:44:55.271Z,6.83
2017-06-09T03:47:21.863Z,6.80
2017-06-09T03:49:48.120Z,6.73
2017-06-09T03:52:14.389Z,6.30
2017-06-09T03:54:41.079Z,7.03
2017-06-09T03:57:07.359Z,7.33
2017-06-09T03:59:33.653Z,6.20
2017-06-09T04:02:00.373Z,6.20
2017-06-09T04:04:26.660Z,5.90
2017-06-09T04:06:52.930Z,6.73
2017-06-09T04:09:19.755Z,6.83
2017-06-09T04:11:46.016Z,7.07
2017-06-09T04:14:12.283Z,6.70
2017-06-09T04:16:38.975Z,6.70
2017-06-09T04:19:05.248Z,6.73
2017-06-09T04:21:31.573Z,7.53
2017-06-09T04:23:58.202Z,6.87
2017-06-09T04:26:24.462Z,6.77
2017-06-09T04:28:50.748Z,6.87
2017-06-09T04:31:18.166Z,7.20
2017-06-09T04:33:44.494Z,6.67
2017-06-09T04:38:44.104Z,5.73
2017-06-09T04:41:10.400Z,6.10
2017-06-09T04:43:36.700Z,6.73
2017-06-09T04:46:03.391Z,7.20
2017-06-09T04:48:30.456Z,7.13
2017-06-09T04:50:56.789Z,7.17
2017-06-09T04:53:24.204Z,6.13
2017-06-09T04:55:50.500Z,6.00
2017-06-09T04:58:16.801Z,6.60
2017-06-09T05:00:43.485Z,6.40
2017-06-09T05:03:09.775Z,6.10
2017-06-09T05:05:36.803Z,6.07
2017-06-09T05:08:03.513Z,6.23
2017-06-09T05:10:29.751Z,5.77
2017-06-09T05:12:56.013Z,5.70
2017-06-09T05:15:22.685Z,5.80
2017-06-09T05:17:48.959Z,6.17
2017-06-09T05:20:15.992Z,5.70
2017-06-09T05:22:42.716Z,6.20
2017-06-09T05:25:09.036Z,6.20
2017-06-09T05:27:35.337Z,5.70
2017-06-09T05:30:01.999Z,6.27
2017-06-09T05:32:28.328Z,6.23
2017-06-09T05:34:54.604Z,5.33
2017-06-09T05:37:21.275Z,5.87
2017-06-09T05:39:47.547Z,5.03
2017-06-09T05:42:14.600Z,5.83
2017-06-09T05:44:42.120Z,6.37
2017-06-09T05:47:08.550Z,5.37
2017-06-09T05:49:34.811Z,5.20
2017-06-09T05:52:01.510Z,5.40
2017-06-09T05:54:27.799Z,5.33
2017-06-09T05:56:54.093Z,4.93
2017-06-09T05:59:21.530Z,5.70
2017-06-09T06:01:47.825Z,5.20
2017-06-09T06:04:14.112Z,6.47
2017-06-09T06:06:41.544Z,4.70
2017-06-09T06:09:07.847Z,4.80
2017-06-09T06:11:34.131Z,5.37
2017-06-09T06:14:01.642Z,5.20
2017-06-09T06:16:27.933Z,4.50
2017-06-09T06:18:54.209Z,5.10
2017-06-09T06:21:20.941Z,5.30
2017-06-09T06:23:47.205Z,5.20
2017-06-09T06:26:13.487Z,5.17
2017-06-09T06:28:40.227Z,5.30
2017-06-09T06:31:06.540Z,5.50
2017-06-09T06:33:32.788Z,5.43
2017-06-09T06:35:59.417Z,4.97
2017-06-09T06:38:26.290Z,5.10
2017-06-09T06:40:53.334Z,5.67
2017-06-09T06:43:20.767Z,5.20
2017-06-09T06:45:47.040Z,4.90
2017-06-09T06:48:13.333Z,5.37
2017-06-09T06:50:40.709Z,4.73
2017-06-09T06:53:06.989Z,4.67
2017-06-09T06:55:33.317Z,5.37
2017-06-09T06:57:59.949Z,4.90
2017-06-09T07:00:26.217Z,5.63
2017-06-09T07:02:53.236Z,4.30
2017-06-09T07:05:19.845Z,4.47
2017-06-09T07:07:46.141Z,5.13
2017-06-09T07:10:13.152Z,4.80
2017-06-09T07:12:39.754Z,4.73
2017-06-09T07:15:06.048Z,5.33
2017-06-09T07:17:33.072Z,5.30
2017-06-09T07:19:59.782Z,4.63
2017-06-09T07:22:26.079Z,4.83
2017-06-09T07:24:52.358Z,4.83
2017-06-09T07:27:19.589Z,5.10
2017-06-09T07:29:45.908Z,4.90
2017-06-09T07:32:12.218Z,5.30
2017-06-09T07:34:38.887Z,5.10
2017-06-09T07:37:05.207Z,5.30
2017-06-09T07:39:31.468Z,5.20
2017-06-09T07:41:58.880Z,4.30
2017-06-09T07:44:25.136Z,4.80
2017-06-09T07:46:52.189Z,4.70
2017-06-09T07:49:18.904Z,4.07
2017-06-09T07:51:45.204Z,4.40
2017-06-09T07:54:11.477Z,3.83
2017-06-09T07:56:38.095Z,4.33
2017-06-09T07:59:04.398Z,3.70
2017-06-09T08:01:30.747Z,3.33
2017-06-09T08:03:57.381Z,3.30
2017-06-09T08:06:23.683Z,3.73
2017-06-09T08:08:49.995Z,3.67
2017-06-09T08:11:17.396Z,4.07
2017-06-09T08:13:43.660Z,3.33
2017-06-09T08:16:09.968Z,3.33
2017-06-09T08:18:36.599Z,2.97
2017-06-09T08:21:02.875Z,3.10
2017-06-09T08:23:29.160Z,3.10
2017-06-09T08:25:55.770Z,2.90
2017-06-09T08:28:22.068Z,3.20
2017-06-09T08:30:48.354Z,3.37
2017-06-09T08:33:14.975Z,3.23
2017-06-09T08:35:41.263Z,2.97
2017-06-09T08:38:07.543Z,2.80
2017-06-09T08:40:34.176Z,3.37
2017-06-09T08:43:00.467Z,3.07
2017-06-09T08:45:26.747Z,2.70
2017-06-09T08:47:53.360Z,3.07
2017-06-09T08:50:19.658Z,3.00
2017-06-09T08:52:45.931Z,3.20
2017-06-09T08:55:12.484Z,3.10
2017-06-09T08:57:38.753Z,3.47
2017-06-09T09:00:05.018Z,3.43
2017-06-09T09:02:32.368Z,2.70
2017-06-09T09:04:59.448Z,3.57
2017-06-09T09:07:25.759Z,3.07
2017-06-09T09:09:52.371Z,3.10
2017-06-09T09:12:18.654Z,2.60
2017-06-09T09:14:45.684Z,3.43
2017-06-09T09:17:12.358Z,2.93
2017-06-09T09:19:38.636Z,2.97
2017-06-09T09:22:05.641Z,2.77
2017-06-09T09:24:32.221Z,3.00
2017-06-09T09:26:59.229Z,2.50
2017-06-09T09:29:25.511Z,3.10
2017-06-09T09:31:52.163Z,2.57
2017-06-09T09:34:18.424Z,2.90
2017-06-09T09:36:44.728Z,2.60
2017-06-09T09:39:11.352Z,2.47
2017-06-09T09:41:37.615Z,2.77
2017-06-09T09:44:03.876Z,3.10
2017-06-09T09:46:30.429Z,2.90
2017-06-09T09:48:56.727Z,3.50
2017-06-09T09:51:23.012Z,3.33
2017-06-09T09:53:49.566Z,3.23
2017-06-09T09:56:15.853Z,3.10
2017-06-09T09:58:42.143Z,3.20
2017-06-09T10:01:08.835Z,3.13
2017-06-09T10:03:35.145Z,3.73
2017-06-09T10:06:01.412Z,3.40
2017-06-09T10:08:28.132Z,3.37
2017-06-09T10:10:54.463Z,3.03
2017-06-09T10:13:20.762Z,3.47
2017-06-09T10:15:47.356Z,3.60
2017-06-09T10:18:13.652Z,3.90
2017-06-09T10:20:40.024Z,3.43
2017-06-09T10:23:06.715Z,3.07
2017-06-09T10:25:33.015Z,2.90
2017-06-09T10:27:59.267Z,3.10
2017-06-09T10:30:25.909Z,2.90
2017-06-09T10:32:52.167Z,2.80
2017-06-09T10:35:18.441Z,3.10
2017-06-09T10:37:45.090Z,2.70
2017-06-09T10:40:11.366Z,2.83
2017-06-09T10:42:37.641Z,2.83
2017-06-09T10:45:04.288Z,2.70
2017-06-09T10:47:30.579Z,3.17
2017-06-09T10:49:56.842Z,3.30
2017-06-09T10:52:23.478Z,3.10
2017-06-09T10:54:49.777Z,2.93
2017-06-09T10:57:16.035Z,3.30
2017-06-09T10:59:42.612Z,3.10
2017-06-09T11:02:09.643Z,3.23
2017-06-09T11:04:35.907Z,2.90
2017-06-09T11:07:02.568Z,3.17
2017-06-09T11:09:28.841Z,2.70
2017-06-09T11:11:55.117Z,2.50
2017-06-09T11:14:21.858Z,2.20
2017-06-09T11:16:48.115Z,2.50
2017-06-09T11:19:15.168Z,2.27
2017-06-09T11:21:41.869Z,2.70
2017-06-09T11:24:08.192Z,2.53
2017-06-09T11:26:34.624Z,2.50
2017-06-09T11:31:27.481Z,3.10
2017-06-09T11:33:53.916Z,2.40
2017-06-09T11:36:20.564Z,2.90
2017-06-09T11:38:46.835Z,3.30
2017-06-09T11:41:13.122Z,2.77
2017-06-09T11:43:39.845Z,3.00
2017-06-09T11:46:06.176Z,2.97
2017-06-09T11:48:32.468Z,2.60
2017-06-09T11:50:59.134Z,2.80
2017-06-09T11:53:25.421Z,2.70
2017-06-09T11:55:51.791Z,2.70
2017-06-09T11:58:18.419Z,2.63
2017-06-09T12:00:44.720Z,2.70
2017-06-09T12:03:11.016Z,2.60
2017-06-09T12:05:38.441Z,2.67
2017-06-09T12:08:04.763Z,2.47
2017-06-09T12:10:31.666Z,2.30
2017-06-09T12:12:58.268Z,2.47
2017-06-09T12:15:24.528Z,2.47
2017-06-09T12:17:51.536Z,2.30
2017-06-09T12:20:18.148Z,2.20
2017-06-09T12:22:44.437Z,2.70
2017-06-09T12:25:10.693Z,2.47
2017-06-09T12:27:37.266Z,2.23
2017-06-09T12:30:03.565Z,3.00
2017-06-09T12:32:29.893Z,2.60
2017-06-09T12:34:56.439Z,2.20
2017-06-09T12:37:22.725Z,2.67
2017-06-09T12:39:49.077Z,2.67
2017-06-09T12:42:15.616Z,2.10
2017-06-09T12:44:41.868Z,2.63
2017-06-09T12:47:08.167Z,2.63
2017-06-09T12:49:34.757Z,2.30
2017-06-09T12:52:01.846Z,2.00
2017-06-09T12:54:28.165Z,2.70
2017-06-09T12:56:54.819Z,2.27
2017-06-09T12:59:21.112Z,2.60
2017-06-09T13:01:47.392Z,2.23
2017-06-09T13:04:14.737Z,2.07
2017-06-09T13:06:40.990Z,2.57
2017-06-09T13:09:07.254Z,2.90
2017-06-09T13:11:33.908Z,2.43
2017-06-09T13:14:00.184Z,2.57
2017-06-09T13:16:27.215Z,2.50
2017-06-09T13:18:54.656Z,2.47
2017-06-09T13:21:20.964Z,2.10
2017-06-09T13:23:47.229Z,2.20
2017-06-09T13:26:13.941Z,2.20
2017-06-09T13:28:40.976Z,2.13
2017-06-09T13:31:07.240Z,2.50
2017-06-09T13:33:34.652Z,2.43
2017-06-09T13:36:00.935Z,2.27
2017-06-09T13:38:27.244Z,3.10
2017-06-09T13:40:54.657Z,2.20
2017-06-09T13:43:21.127Z,3.07
2017-06-09T13:45:48.125Z,2.60
2017-06-09T13:48:14.781Z,1.57
2017-06-09T13:50:41.076Z,2.87
2017-06-09T13:53:07.343Z,2.10
2017-06-09T13:55:33.940Z,1.60
2017-06-09T13:58:00.196Z,2.00
2017-06-09T14:00:28.683Z,1.90
2017-06-09T14:02:55.393Z,2.03
2017-06-09T14:05:21.675Z,1.83
2017-06-09T14:07:48.676Z,1.80
2017-06-09T14:10:15.307Z,1.80
2017-06-09T14:12:41.594Z,1.77
2017-06-09T14:15:07.877Z,1.80
2017-06-09T14:17:34.512Z,1.90
2017-06-09T14:20:00.779Z,1.73
2017-06-09T14:22:27.755Z,1.90
2017-06-09T14:24:54.511Z,2.17
2017-06-09T14:27:20.929Z,1.80
2017-06-09T14:29:47.207Z,1.67
2017-06-09T14:32:14.593Z,1.60
2017-06-09T14:34:40.925Z,1.87
2017-06-09T14:37:07.204Z,1.97
2017-06-09T14:39:34.609Z,1.70
2017-06-09T14:42:00.886Z,1.80
2017-06-09T14:44:27.153Z,1.80
2017-06-09T14:46:53.796Z,1.93
2017-06-09T14:49:20.066Z,2.23
2017-06-09T14:51:46.374Z,1.57
2017-06-09T14:54:14.540Z,1.90
2017-06-09T14:56:40.810Z,1.57
2017-06-09T14:59:07.100Z,1.90
2017-06-09T15:01:33.716Z,2.00
2017-06-09T15:03:59.995Z,1.80
2017-06-09T15:06:26.257Z,1.70
2017-06-09T15:08:53.000Z,2.00
2017-06-09T15:11:19.308Z,2.30
2017-06-09T15:13:45.596Z,2.03
2017-06-09T15:16:12.304Z,1.90
2017-06-09T15:18:38.598Z,1.67
2017-06-09T15:21:05.632Z,2.10
2017-06-09T15:23:32.240Z,1.97
2017-06-09T15:25:58.501Z,1.70
2017-06-09T15:28:24.779Z,1.60
2017-06-09T15:30:51.516Z,1.80
2017-06-09T15:33:17.808Z,2.03
2017-06-09T15:35:44.096Z,1.70
2017-06-09T15:38:10.907Z,1.90
2017-06-09T15:40:37.192Z,2.10
2017-06-09T15:43:03.479Z,2.20
2017-06-09T15:45:30.194Z,2.50
2017-06-09T15:47:56.484Z,2.30
2017-06-09T15:50:22.848Z,2.80
2017-06-09T15:52:49.576Z,2.70
2017-06-09T15:55:15.826Z,7.93
2017-06-09T15:57:42.048Z,11.40
2017-06-09T16:00:08.656Z,12.43
2017-06-09T16:02:34.952Z,11.80
2017-06-09T16:05:01.927Z,12.47
2017-06-09T16:07:29.221Z,10.20
2017-06-09T16:09:55.496Z,3.60
2017-06-09T16:12:21.772Z,1.30
2017-06-09T16:14:48.487Z,1.00
2017-06-09T16:17:14.744Z,1.00
2017-06-09T16:19:41.792Z,0.90
2017-06-09T16:22:08.497Z,0.80
2017-06-09T16:24:34.768Z,0.90
2017-06-09T16:27:01.799Z,0.80
2017-06-09T16:29:28.515Z,1.20
2017-06-09T16:31:54.765Z,0.80
2017-06-09T16:34:21.191Z,0.60
2017-06-09T16:36:48.715Z,1.07
2017-06-09T16:39:14.982Z,1.00
2017-06-09T16:41:42.003Z,1.10
2017-06-09T16:44:08.641Z,0.60
2017-06-09T16:46:34.892Z,0.83
2017-06-09T16:49:01.912Z,0.90
2017-06-09T16:51:29.297Z,0.90
2017-06-09T16:53:56.286Z,0.70
2017-06-09T16:56:22.573Z,0.90
2017-06-09T16:58:49.964Z,1.20
2017-06-09T17:01:16.232Z,1.00
2017-06-09T17:03:42.502Z,0.80
2017-06-09T17:06:09.169Z,1.00
2017-06-09T17:08:35.423Z,1.10
2017-06-09T17:11:01.685Z,0.97
2017-06-09T17:13:28.322Z,1.10
2017-06-09T17:15:54.577Z,1.20
2017-06-09T17:18:20.816Z,1.10
2017-06-09T17:20:47.426Z,1.20
2017-06-09T17:23:13.667Z,1.23
2017-06-09T17:25:39.933Z,1.20
2017-06-09T17:28:07.332Z,0.70
2017-06-09T17:30:33.612Z,0.80
2017-06-09T17:32:59.901Z,0.90
2017-06-09T17:35:26.643Z,0.90
2017-06-09T17:37:52.901Z,0.87
2017-06-09T17:40:19.151Z,1.00
2017-06-09T17:42:46.444Z,1.00
2017-06-09T17:45:12.708Z,1.00
2017-06-09T17:47:38.985Z,1.13
2017-06-09T17:50:05.623Z,1.00
2017-06-09T17:52:31.884Z,1.10
2017-06-09T17:54:58.180Z,1.33
2017-06-09T17:57:24.840Z,0.80
2017-06-09T17:59:51.085Z,1.23
2017-06-09T18:02:18.128Z,0.83
2017-06-09T18:04:44.835Z,0.83
2017-06-09T18:07:11.156Z,0.80
2017-06-09T18:09:38.201Z,1.00
2017-06-09T18:12:04.999Z,1.00
2017-06-09T18:14:31.329Z,1.00
2017-06-09T18:16:57.611Z,0.90
2017-06-09T18:19:24.347Z,1.10
2017-06-09T18:21:50.675Z,1.30
2017-06-09T18:24:16.944Z,0.90
2017-06-09T18:26:44.337Z,1.00
2017-06-09T18:29:10.617Z,0.93
2017-06-09T18:31:36.894Z,1.00
2017-06-09T18:34:03.749Z,1.40
2017-06-09T18:36:30.040Z,1.93
2017-06-09T18:38:56.327Z,1.30
2017-06-09T18:41:23.041Z,1.40
2017-06-09T18:43:49.364Z,1.07
2017-06-09T18:46:15.913Z,1.03
2017-06-09T18:48:42.661Z,0.90
2017-06-09T18:51:08.969Z,1.00
2017-06-09T18:53:35.243Z,1.00
2017-06-09T18:56:02.685Z,1.10
2017-06-09T18:58:28.950Z,1.23
2017-06-09T19:00:55.329Z,1.13
2017-06-09T19:03:23.686Z,1.13
2017-06-09T19:05:49.988Z,1.23
2017-06-09T19:08:16.261Z,1.43
2017-06-09T19:10:42.914Z,1.20
2017-06-09T19:13:09.249Z,1.00
2017-06-09T19:15:35.567Z,1.50
2017-06-09T19:18:02.172Z,1.30
2017-06-09T19:20:28.459Z,1.10
2017-06-09T19:22:54.739Z,1.43
2017-06-09T19:25:21.368Z,1.50
2017-06-09T19:27:47.659Z,1.57
2017-06-09T19:30:13.933Z,1.93
2017-06-09T19:32:40.547Z,2.20
2017-06-09T19:35:06.853Z,2.47
2017-06-09T19:37:33.135Z,2.60
2017-06-09T19:40:00.565Z,2.30
2017-06-09T19:42:26.984Z,2.80
2017-06-09T19:44:53.318Z,2.73
2017-06-09T19:47:19.957Z,2.50
2017-06-09T19:49:46.237Z,2.03
2017-06-09T19:52:12.539Z,2.40
2017-06-09T19:54:39.129Z,2.50
2017-06-09T19:57:05.905Z,2.13
2017-06-09T19:59:32.224Z,2.43
2017-06-09T20:01:59.049Z,2.70
2017-06-09T20:04:25.291Z,2.40
2017-06-09T20:06:51.551Z,2.50
2017-06-09T20:09:18.119Z,2.70
2017-06-09T20:11:44.892Z,2.73
2017-06-09T20:14:11.192Z,2.33
2017-06-09T20:16:37.953Z,2.73
2017-06-09T20:19:04.253Z,3.00
2017-06-09T20:21:31.240Z,2.90
2017-06-09T20:23:57.670Z,2.80
2017-06-09T20:26:23.947Z,2.77
2017-06-09T20:28:50.217Z,2.93
2017-06-09T20:31:16.764Z,2.97
2017-06-09T20:33:43.131Z,2.87
2017-06-09T20:36:09.380Z,2.90
2017-06-09T20:38:36.545Z,3.03
2017-06-09T20:41:02.980Z,4.77
2017-06-09T20:43:29.243Z,3.60
2017-06-09T20:45:55.773Z,3.43
2017-06-09T20:48:22.074Z,3.30
2017-06-09T20:50:48.381Z,2.97
2017-06-09T20:53:15.669Z,3.43
2017-06-09T20:55:41.935Z,4.00
2017-06-09T20:58:08.220Z,3.60
2017-06-09T21:00:34.681Z,4.27
2017-06-09T21:03:00.951Z,3.60
2017-06-09T21:05:27.280Z,3.70
2017-06-09T21:07:54.537Z,4.63
2017-06-09T21:10:21.539Z,6.40
2017-06-09T21:12:47.777Z,5.10
2017-06-09T21:15:14.287Z,4.70
2017-06-09T21:17:40.665Z,4.47
2017-06-09T21:20:06.938Z,5.20
2017-06-09T21:22:33.419Z,5.10
2017-06-09T21:24:59.700Z,5.83
2017-06-09T21:27:25.941Z,5.40
2017-06-09T21:29:52.598Z,6.23
2017-06-09T21:32:18.859Z,5.50
2017-06-09T21:34:45.136Z,5.87
2017-06-09T21:37:11.576Z,6.27
2017-06-09T21:39:37.885Z,4.97
2017-06-09T21:42:04.883Z,5.93
2017-06-09T21:44:31.404Z,5.13
2017-06-09T21:46:57.696Z,5.20
2017-06-09T21:49:24.708Z,5.93
2017-06-09T21:51:51.219Z,5.70
2017-06-09T21:54:17.483Z,5.63
2017-06-09T21:56:43.717Z,6.43
2017-06-09T21:59:10.936Z,5.90
2017-06-09T22:01:37.193Z,6.20
2017-06-09T22:04:03.440Z,6.23
2017-06-09T22:06:30.825Z,6.77
2017-06-09T22:08:57.192Z,6.50
2017-06-09T22:11:23.503Z,6.07
2017-06-09T22:13:50.052Z,7.70
2017-06-09T22:16:16.311Z,6.77
2017-06-09T22:18:42.625Z,7.50
2017-06-09T22:21:09.064Z,6.63
2017-06-09T22:23:36.068Z,7.40
2017-06-09T22:26:02.308Z,9.03
2017-06-09T22:28:28.819Z,8.40
2017-06-09T22:30:55.108Z,8.83
2017-06-09T22:33:21.450Z,9.50
2017-06-09T22:35:48.017Z,9.80
2017-06-09T22:38:14.272Z,9.57
2017-06-09T22:40:40.593Z,10.80
2017-06-09T22:43:07.112Z,10.30
2017-06-09T22:45:33.360Z,10.00
2017-06-09T22:47:59.631Z,10.43
2017-06-09T22:50:26.840Z,10.37
2017-06-09T22:52:53.170Z,11.53
2017-06-09T22:55:19.453Z,10.13
2017-06-09T22:57:45.957Z,11.43
2017-06-09T23:00:12.220Z,10.50
2017-06-09T23:02:38.480Z,11.97
2017-06-09T23:05:04.908Z,11.37
2017-06-09T23:07:31.127Z,11.63
2017-06-09T23:09:57.388Z,11.33
2017-06-09T23:12:24.031Z,12.00
2017-06-09T23:14:50.328Z,11.97
2017-06-09T23:17:16.620Z,11.17
2017-06-09T23:19:43.328Z,11.77
2017-06-09T23:22:09.629Z,12.23
2017-06-09T23:24:41.877Z,12.17
2017-06-09T23:27:08.472Z,11.73
2017-06-09T23:29:34.728Z,13.33
2017-06-09T23:32:01.057Z,11.53
2017-06-09T23:34:27.558Z,12.70
2017-06-09T23:36:53.890Z,12.10
2017-06-09T23:39:20.176Z,11.80
2017-06-09T23:41:47.447Z,10.70
2017-06-09T23:44:14.429Z,11.23
2017-06-09T23:46:40.710Z,11.00
2017-06-09T23:49:07.129Z,10.40
2017-06-09T23:51:34.147Z,11.77
2017-06-09T23:54:00.384Z,10.43
2017-06-09T23:56:26.793Z,11.47
2017-06-09T23:58:53.043Z,11.60
